createdAt,value
2018-11-29T00:01:59.813Z,-2.21
2018-11-29T00:04:47.678Z,-2.26
2018-11-29T00:07:35.961Z,-1.64
2018-11-29T00:13:29.617Z,-2.27
2018-11-29T00:16:17.924Z,-2.34
2018-11-29T00:19:08.682Z,-2.40
2018-11-29T00:21:57.924Z,-2.45
2018-11-29T00:24:45.159Z,-2.47
2018-11-29T00:27:32.826Z,-2.48
2018-11-29T00:30:20.638Z,-2.49
2018-11-29T00:33:08.244Z,-2.50
2018-11-29T00:35:55.561Z,-1.84
2018-11-29T00:38:42.917Z,-2.28
2018-11-29T00:41:31.137Z,-2.37
2018-11-29T00:44:18.624Z,-2.40
2018-11-29T00:47:06.762Z,-1.72
2018-11-29T00:49:54.245Z,-2.17
2018-11-29T00:52:41.460Z,-2.25
2018-11-29T00:55:28.916Z,-2.27
2018-11-29T01:01:22.952Z,-2.29
2018-11-29T01:04:10.417Z,-2.30
2018-11-29T01:06:57.543Z,-2.31
2018-11-29T01:09:47.524Z,-2.31
2018-11-29T01:12:34.739Z,-1.63
2018-11-29T01:15:22.331Z,-2.05
2018-11-29T01:18:09.710Z,-2.13
2018-11-29T01:20:57.073Z,-2.12
2018-11-29T01:23:46.132Z,-2.09
2018-11-29T01:26:33.757Z,-2.05
2018-11-29T01:29:21.158Z,-1.37
2018-11-29T01:32:08.868Z,-1.75
2018-11-29T01:34:57.059Z,-1.74
2018-11-29T01:37:44.023Z,-1.64
2018-11-29T01:40:31.587Z,-1.56
2018-11-29T01:43:18.973Z,-1.50
2018-11-29T01:46:08.985Z,-0.85
2018-11-29T01:48:56.613Z,-0.53
2018-11-29T01:51:44.955Z,-0.99
2018-11-29T01:54:32.284Z,-1.11
2018-11-29T01:57:19.608Z,-1.20
2018-11-29T02:00:06.884Z,-1.27
2018-11-29T02:02:55.639Z,-1.31
2018-11-29T02:05:42.047Z,-1.36
2018-11-29T02:08:29.883Z,-1.40
2018-11-29T02:14:31.531Z,-1.24
2018-11-29T02:17:18.771Z,-1.31
2018-11-29T02:20:06.200Z,-1.36
2018-11-29T02:22:53.258Z,-1.41
2018-11-29T02:25:40.853Z,-1.48
2018-11-29T02:28:30.071Z,-1.53
2018-11-29T02:31:17.486Z,-1.59
2018-11-29T02:34:04.945Z,-1.64
2018-11-29T02:36:52.066Z,-1.68
2018-11-29T02:39:39.691Z,-1.71
2018-11-29T02:42:29.568Z,-1.73
2018-11-29T02:45:17.060Z,-1.73
2018-11-29T02:48:04.255Z,-1.73
2018-11-29T02:50:52.558Z,-1.74
2018-11-29T02:53:55.612Z,-1.73
2018-11-29T02:56:42.976Z,-1.74
2018-11-29T02:59:30.616Z,-1.76
2018-11-29T03:02:18.051Z,-1.77
2018-11-29T03:05:05.438Z,-1.77
2018-11-29T03:07:52.751Z,-1.75
2018-11-29T03:10:40.168Z,-1.73
2018-11-29T03:13:27.233Z,-1.06
2018-11-29T03:16:17.123Z,-1.47
2018-11-29T03:19:04.340Z,-1.51
2018-11-29T03:21:52.016Z,-1.52
2018-11-29T03:27:45.851Z,-1.30
2018-11-29T03:30:33.166Z,-1.36
2018-11-29T03:33:20.638Z,-1.41
2018-11-29T03:36:07.991Z,-1.42
2018-11-29T03:38:55.361Z,-1.41
2018-11-29T03:41:42.898Z,-1.39
2018-11-29T03:44:30.426Z,-1.36
2018-11-29T03:47:18.225Z,-1.29
2018-11-29T03:50:05.552Z,-0.53
2018-11-29T03:52:53.156Z,-0.84
2018-11-29T03:55:56.135Z,-0.85
2018-11-29T03:58:59.629Z,-0.80
2018-11-29T04:01:47.091Z,-0.72
2018-11-29T04:04:34.340Z,-0.65
2018-11-29T04:07:21.539Z,-0.56
2018-11-29T04:10:24.152Z,0.17
2018-11-29T04:13:11.040Z,-0.18
2018-11-29T04:16:13.849Z,-0.16
2018-11-29T04:19:01.203Z,-0.11
2018-11-29T04:21:48.488Z,-0.05
2018-11-29T04:24:36.001Z,0.01
2018-11-29T04:27:23.532Z,0.06
2018-11-29T04:30:11.564Z,0.11
2018-11-29T04:32:58.983Z,0.17
2018-11-29T04:35:46.205Z,0.21
2018-11-29T04:38:33.609Z,0.23
2018-11-29T04:41:21.072Z,0.26
2018-11-29T04:44:08.488Z,0.27
2018-11-29T04:46:55.936Z,0.32
2018-11-29T04:49:43.452Z,0.34
2018-11-29T04:52:38.713Z,1.00
2018-11-29T04:55:26.362Z,0.65
2018-11-29T04:58:13.714Z,1.26
2018-11-29T05:01:01.186Z,0.79
2018-11-29T05:03:48.444Z,1.40
2018-11-29T05:06:35.926Z,0.91
2018-11-29T05:09:23.633Z,0.79
2018-11-29T05:12:10.900Z,0.73
2018-11-29T05:14:58.293Z,0.67
2018-11-29T05:17:45.715Z,0.63
2018-11-29T05:20:32.827Z,0.60
2018-11-29T05:23:21.045Z,1.26
2018-11-29T05:26:08.430Z,1.54
2018-11-29T05:28:56.198Z,1.01
2018-11-29T05:31:43.829Z,0.92
2018-11-29T05:34:32.146Z,0.89
2018-11-29T05:37:19.656Z,0.85
2018-11-29T05:40:07.151Z,0.83
2018-11-29T05:42:56.356Z,0.82
2018-11-29T05:45:42.114Z,0.82
2018-11-29T05:48:29.663Z,0.81
2018-11-29T05:51:17.244Z,0.81
2018-11-29T05:54:04.767Z,0.80
2018-11-29T05:56:52.153Z,0.81
2018-11-29T05:59:39.628Z,0.82
2018-11-29T06:02:26.915Z,0.84
2018-11-29T06:05:14.132Z,0.84
2018-11-29T06:08:01.494Z,0.85
2018-11-29T06:14:03.061Z,0.86
2018-11-29T06:16:52.613Z,0.91
2018-11-29T06:19:39.982Z,0.93
2018-11-29T06:22:27.185Z,0.96
2018-11-29T06:25:14.271Z,0.95
2018-11-29T06:28:01.376Z,0.97
2018-11-29T06:30:48.368Z,0.98
2018-11-29T06:33:35.893Z,0.99
2018-11-29T06:36:23.543Z,1.05
2018-11-29T06:39:10.773Z,1.08
2018-11-29T06:42:00.786Z,1.09
2018-11-29T06:44:48.507Z,1.11
2018-11-29T06:47:35.979Z,1.14
2018-11-29T06:50:23.030Z,1.18
2018-11-29T06:53:10.960Z,1.19
2018-11-29T06:56:00.563Z,1.21
2018-11-29T06:58:48.010Z,1.25
2018-11-29T07:01:35.807Z,1.26
2018-11-29T07:04:25.202Z,1.29
2018-11-29T07:07:12.763Z,1.28
2018-11-29T07:10:00.389Z,1.31
2018-11-29T07:12:50.145Z,1.32
2018-11-29T07:15:38.109Z,1.33
2018-11-29T07:18:25.760Z,1.36
2018-11-29T07:21:40.810Z,1.39
2018-11-29T07:24:30.005Z,1.41
2018-11-29T07:27:17.607Z,1.46
2018-11-29T07:30:05.194Z,1.50
2018-11-29T07:32:52.564Z,1.55
2018-11-29T07:35:42.659Z,1.60
2018-11-29T07:38:30.165Z,2.34
2018-11-29T07:41:19.815Z,1.88
2018-11-29T07:44:07.093Z,1.85
2018-11-29T07:46:54.443Z,1.90
2018-11-29T07:49:49.755Z,1.94
2018-11-29T07:52:37.342Z,1.98
2018-11-29T07:58:31.133Z,2.12
2018-11-29T08:01:18.551Z,2.15
2018-11-29T08:07:14.035Z,2.32
2018-11-29T08:13:08.026Z,2.56
2018-11-29T08:16:03.177Z,3.45
2018-11-29T08:18:50.554Z,3.00
2018-11-29T08:21:39.917Z,3.02
2018-11-29T08:24:28.931Z,3.08
2018-11-29T08:30:22.106Z,3.23
2018-11-29T08:36:17.001Z,3.34
2018-11-29T08:39:06.994Z,4.25
2018-11-29T08:41:54.588Z,4.53
2018-11-29T08:44:42.723Z,3.87
2018-11-29T08:50:53.043Z,3.69
2018-11-29T08:53:41.048Z,3.71
2018-11-29T08:56:28.271Z,3.71
2018-11-29T08:59:17.326Z,3.74
2018-11-29T09:02:04.354Z,3.76
2018-11-29T09:04:51.813Z,3.80
2018-11-29T09:07:40.113Z,3.85
2018-11-29T09:10:39.502Z,3.92
2018-11-29T09:13:32.623Z,3.96
2018-11-29T09:19:29.064Z,4.39
2018-11-29T09:22:20.887Z,4.36
2018-11-29T09:25:08.390Z,5.30
2018-11-29T09:28:13.114Z,5.60
2018-11-29T09:31:02.331Z,4.98
2018-11-29T09:33:50.766Z,4.99
2018-11-29T09:36:46.537Z,6.05
2018-11-29T09:39:34.166Z,5.41
2018-11-29T09:42:29.318Z,5.41
2018-11-29T09:45:16.716Z,6.48
2018-11-29T09:48:07.025Z,5.80
2018-11-29T09:50:55.062Z,5.78
2018-11-29T09:54:04.678Z,5.79
2018-11-29T09:56:52.619Z,5.85
2018-11-29T09:59:40.587Z,6.90
2018-11-29T10:02:41.293Z,6.10
2018-11-29T10:05:31.316Z,6.01
2018-11-29T10:08:18.909Z,5.96
2018-11-29T10:11:06.644Z,5.93
2018-11-29T10:13:54.293Z,6.01
2018-11-29T10:16:43.446Z,6.07
2018-11-29T10:19:31.356Z,6.10
2018-11-29T10:22:18.838Z,6.17
2018-11-29T10:25:06.334Z,6.32
2018-11-29T10:27:53.971Z,6.38
2018-11-29T10:30:41.570Z,6.51
2018-11-29T10:33:34.544Z,6.61
2018-11-29T10:36:21.952Z,6.64
2018-11-29T10:39:13.568Z,7.73
2018-11-29T10:42:01.290Z,8.02
2018-11-29T10:44:48.385Z,7.26
2018-11-29T10:47:36.616Z,7.03
2018-11-29T10:53:36.381Z,6.93
2018-11-29T10:56:22.868Z,6.91
2018-11-29T10:59:10.365Z,6.82
2018-11-29T11:01:57.918Z,6.85
2018-11-29T11:04:44.999Z,6.90
2018-11-29T11:07:32.729Z,6.98
2018-11-29T11:10:20.772Z,7.08
2018-11-29T11:13:08.496Z,7.12
2018-11-29T11:15:56.562Z,7.26
2018-11-29T11:18:44.106Z,8.41
2018-11-29T11:21:40.122Z,7.85
2018-11-29T11:24:28.323Z,7.77
2018-11-29T11:27:15.645Z,7.71
2018-11-29T11:30:03.011Z,7.66
2018-11-29T11:32:51.161Z,8.66
2018-11-29T11:35:38.638Z,7.87
2018-11-29T11:38:27.812Z,7.73
2018-11-29T11:41:15.563Z,8.71
2018-11-29T11:44:02.749Z,7.98
2018-11-29T11:46:50.589Z,7.82
2018-11-29T11:49:38.650Z,7.79
2018-11-29T11:52:27.929Z,7.79
2018-11-29T11:55:18.947Z,7.74
2018-11-29T11:58:03.300Z,7.75
2018-11-29T12:00:52.648Z,7.78
2018-11-29T12:03:40.805Z,7.81
2018-11-29T12:06:28.198Z,7.86
2018-11-29T12:09:16.564Z,7.89
2018-11-29T12:12:07.041Z,7.98
2018-11-29T12:14:54.428Z,7.99
2018-11-29T12:17:42.208Z,8.05
2018-11-29T12:20:30.560Z,8.04
2018-11-29T12:23:19.559Z,9.05
2018-11-29T12:26:17.361Z,8.33
2018-11-29T12:29:06.317Z,9.18
2018-11-29T12:31:53.192Z,8.31
2018-11-29T12:34:40.770Z,8.17
2018-11-29T12:37:28.393Z,9.08
2018-11-29T12:40:17.753Z,8.25
2018-11-29T12:43:06.097Z,9.06
2018-11-29T12:45:54.578Z,8.26
2018-11-29T12:51:48.641Z,7.80
2018-11-29T12:54:36.381Z,8.61
2018-11-29T12:57:23.608Z,7.79
2018-11-29T13:00:11.916Z,7.57
2018-11-29T13:03:00.400Z,7.41
2018-11-29T13:05:47.839Z,8.23
2018-11-29T13:11:47.557Z,7.27
2018-11-29T13:14:35.394Z,7.25
2018-11-29T13:17:23.765Z,7.20
2018-11-29T13:20:11.193Z,8.05
2018-11-29T13:22:58.609Z,7.45
2018-11-29T13:25:46.321Z,7.34
2018-11-29T13:28:34.990Z,7.31
2018-11-29T13:31:21.877Z,7.29
2018-11-29T13:34:10.114Z,7.25
2018-11-29T13:36:57.427Z,8.11
2018-11-29T13:39:44.589Z,7.46
2018-11-29T13:42:32.895Z,7.32
2018-11-29T13:45:21.542Z,8.10
2018-11-29T13:48:10.735Z,8.24
2018-11-29T13:54:04.509Z,8.24
2018-11-29T13:56:52.017Z,7.37
2018-11-29T13:59:40.235Z,7.05
2018-11-29T14:02:31.004Z,7.75
2018-11-29T14:05:22.195Z,6.96
2018-11-29T14:08:13.243Z,6.70
2018-11-29T14:11:02.047Z,6.54
2018-11-29T14:13:49.575Z,6.41
2018-11-29T14:16:38.500Z,6.28
2018-11-29T14:19:26.504Z,6.15
2018-11-29T14:22:13.815Z,6.04
2018-11-29T14:25:03.144Z,5.92
2018-11-29T14:27:50.751Z,5.80
2018-11-29T14:30:40.612Z,5.68
2018-11-29T14:33:28.374Z,5.57
2018-11-29T14:36:16.887Z,6.32
2018-11-29T14:39:04.653Z,5.60
2018-11-29T14:41:54.739Z,5.40
2018-11-29T14:44:42.360Z,5.25
2018-11-29T14:47:32.626Z,5.11
2018-11-29T14:50:20.608Z,4.99
2018-11-29T14:53:08.186Z,4.89
2018-11-29T14:55:56.226Z,4.79
2018-11-29T14:58:43.978Z,4.71
2018-11-29T15:01:31.451Z,4.63
2018-11-29T15:04:19.465Z,4.54
2018-11-29T15:07:08.664Z,4.47
2018-11-29T15:09:58.206Z,4.39
2018-11-29T15:12:46.081Z,4.32
2018-11-29T15:15:41.588Z,4.25
2018-11-29T15:18:28.931Z,4.16
2018-11-29T15:21:16.279Z,4.10
2018-11-29T15:24:03.567Z,4.05
2018-11-29T15:26:50.851Z,3.98
2018-11-29T15:29:39.634Z,3.92
2018-11-29T15:32:27.057Z,4.63
2018-11-29T15:35:14.393Z,4.08
2018-11-29T15:38:02.206Z,3.96
2018-11-29T15:40:50.231Z,3.86
2018-11-29T15:43:37.688Z,3.80
2018-11-29T15:46:24.847Z,3.73
2018-11-29T15:49:12.137Z,3.68
2018-11-29T15:52:00.406Z,4.38
2018-11-29T15:54:52.101Z,3.84
2018-11-29T15:57:39.186Z,3.72
2018-11-29T16:00:26.733Z,3.65
2018-11-29T16:03:14.317Z,4.37
2018-11-29T16:09:07.612Z,3.69
2018-11-29T16:11:55.006Z,3.65
2018-11-29T16:14:43.504Z,3.59
2018-11-29T16:17:30.037Z,3.54
2018-11-29T16:20:17.733Z,3.49
2018-11-29T16:23:06.599Z,3.43
2018-11-29T16:25:54.685Z,4.14
2018-11-29T16:28:44.072Z,3.62
2018-11-29T16:31:36.487Z,3.49
2018-11-29T16:34:24.137Z,3.40
2018-11-29T16:37:13.087Z,3.33
2018-11-29T16:40:03.817Z,3.28
2018-11-29T16:42:51.435Z,3.21
2018-11-29T16:45:38.893Z,3.17
2018-11-29T16:48:36.521Z,3.84
2018-11-29T16:51:24.124Z,4.06
2018-11-29T16:54:16.656Z,4.15
2018-11-29T16:57:02.178Z,4.23
2018-11-29T16:59:52.153Z,3.52
2018-11-29T17:02:42.071Z,3.31
2018-11-29T17:05:34.327Z,3.15
2018-11-29T17:08:21.760Z,3.83
2018-11-29T17:11:08.983Z,3.18
2018-11-29T17:13:56.694Z,3.01
2018-11-29T17:16:45.617Z,2.91
2018-11-29T17:19:33.103Z,3.64
2018-11-29T17:22:20.485Z,3.06
2018-11-29T17:25:08.208Z,2.93
2018-11-29T17:27:57.509Z,2.83
2018-11-29T17:30:44.535Z,2.78
2018-11-29T17:33:31.959Z,2.72
2018-11-29T17:36:20.329Z,2.69
2018-11-29T17:39:08.226Z,2.65
2018-11-29T17:41:55.781Z,2.60
2018-11-29T17:44:45.841Z,3.33
2018-11-29T17:47:32.913Z,2.79
2018-11-29T17:50:20.825Z,2.67
2018-11-29T17:53:08.357Z,2.58
2018-11-29T17:55:55.626Z,2.53
2018-11-29T17:58:43.388Z,2.49
2018-11-29T18:01:30.802Z,2.46
2018-11-29T18:04:19.026Z,2.43
2018-11-29T18:07:11.447Z,2.40
2018-11-29T18:09:58.740Z,2.34
2018-11-29T18:12:46.002Z,2.30
2018-11-29T18:15:36.909Z,2.27
2018-11-29T18:18:26.050Z,2.25
2018-11-29T18:21:13.699Z,2.24
2018-11-29T18:24:05.220Z,2.22
2018-11-29T18:26:54.232Z,2.21
2018-11-29T18:29:41.306Z,2.18
2018-11-29T18:32:32.641Z,2.15
2018-11-29T18:35:20.069Z,2.13
2018-11-29T18:38:07.484Z,2.11
2018-11-29T18:40:54.901Z,2.10
2018-11-29T18:43:42.191Z,2.09
2018-11-29T18:46:29.729Z,2.08
2018-11-29T18:49:17.070Z,2.06
2018-11-29T18:52:04.288Z,2.05
2018-11-29T18:55:00.279Z,2.04
2018-11-29T18:57:47.897Z,2.05
2018-11-29T19:00:35.231Z,2.06
2018-11-29T19:03:23.119Z,2.06
2018-11-29T19:06:10.650Z,2.07
2018-11-29T19:08:58.351Z,2.06
2018-11-29T19:11:45.931Z,2.06
2018-11-29T19:14:33.676Z,2.08
2018-11-29T19:17:25.044Z,2.09
2018-11-29T19:23:15.698Z,2.12
2018-11-29T19:26:03.342Z,2.13
2018-11-29T19:28:51.320Z,2.13
2018-11-29T19:31:39.059Z,2.15
2018-11-29T19:34:29.788Z,2.16
2018-11-29T19:37:17.960Z,2.17
2018-11-29T19:40:06.488Z,2.16
2018-11-29T19:42:54.525Z,2.90
2018-11-29T19:45:44.833Z,2.43
2018-11-29T19:48:32.826Z,2.36
2018-11-29T19:51:21.387Z,2.33
2018-11-29T19:54:10.409Z,2.33
2018-11-29T19:56:58.768Z,2.33
2018-11-29T20:03:02.447Z,2.30
2018-11-29T20:05:57.057Z,3.06
2018-11-29T20:08:48.144Z,2.52
2018-11-29T20:11:43.433Z,3.21
2018-11-29T20:14:33.115Z,2.65
2018-11-29T20:17:22.363Z,3.32
2018-11-29T20:20:12.822Z,2.73
2018-11-29T20:23:01.268Z,2.61
2018-11-29T20:25:50.094Z,2.52
2018-11-29T20:28:39.029Z,2.46
2018-11-29T20:31:26.292Z,2.42
2018-11-29T20:34:15.437Z,2.38
2018-11-29T20:37:03.106Z,2.37
2018-11-29T20:39:50.674Z,3.09
2018-11-29T20:42:45.073Z,3.34
2018-11-29T20:45:35.510Z,2.73
2018-11-29T20:48:24.393Z,2.62
2018-11-29T20:51:16.011Z,2.56
2018-11-29T20:54:03.752Z,2.53
2018-11-29T20:56:52.036Z,3.27
2018-11-29T20:59:40.421Z,2.74
2018-11-29T21:02:27.815Z,2.66
2018-11-29T21:05:15.080Z,2.63
2018-11-29T21:08:02.601Z,2.62
2018-11-29T21:10:49.858Z,2.61
2018-11-29T21:13:37.637Z,2.61
2018-11-29T21:16:25.323Z,2.60
2018-11-29T21:19:12.865Z,2.59
2018-11-29T21:22:00.245Z,2.58
2018-11-29T21:24:48.476Z,2.56
2018-11-29T21:27:36.331Z,2.52
2018-11-29T21:30:25.626Z,2.50
2018-11-29T21:33:14.266Z,2.50
2018-11-29T21:36:02.314Z,2.51
2018-11-29T21:38:50.748Z,2.54
2018-11-29T21:41:38.667Z,2.58
2018-11-29T21:44:26.646Z,2.62
2018-11-29T21:47:14.287Z,2.67
2018-11-29T21:50:02.311Z,2.70
2018-11-29T21:52:50.231Z,2.72
2018-11-29T21:55:38.881Z,2.75
2018-11-29T21:58:26.021Z,2.82
2018-11-29T22:01:13.140Z,2.89
2018-11-29T22:04:02.018Z,2.96
2018-11-29T22:06:54.003Z,3.00
2018-11-29T22:09:41.494Z,3.02
2018-11-29T22:12:30.087Z,3.04
2018-11-29T22:18:24.184Z,3.10
2018-11-29T22:21:12.357Z,3.19
2018-11-29T22:24:01.683Z,3.25
2018-11-29T22:26:49.385Z,3.30
2018-11-29T22:29:55.227Z,3.41
2018-11-29T22:32:59.370Z,3.43
2018-11-29T22:35:49.006Z,4.16
2018-11-29T22:38:36.348Z,3.80
2018-11-29T22:41:24.093Z,3.75
2018-11-29T22:44:11.668Z,3.73
2018-11-29T22:46:59.292Z,3.70
2018-11-29T22:49:48.306Z,4.34
2018-11-29T22:52:35.827Z,3.86
2018-11-29T22:55:23.087Z,3.75
2018-11-29T22:58:10.523Z,3.68
2018-11-29T23:01:00.626Z,3.65
2018-11-29T23:03:48.178Z,3.61
2018-11-29T23:06:35.416Z,3.59
2018-11-29T23:09:22.823Z,3.56
2018-11-29T23:12:11.057Z,3.52
2018-11-29T23:15:00.257Z,3.48
2018-11-29T23:17:47.705Z,4.15
2018-11-29T23:20:40.895Z,3.67
2018-11-29T23:23:42.640Z,3.54
2018-11-29T23:26:34.131Z,3.49
2018-11-29T23:29:35.242Z,3.44
2018-11-29T23:32:27.577Z,3.40
2018-11-29T23:35:21.180Z,3.38
2018-11-29T23:38:08.769Z,3.39
2018-11-29T23:40:56.632Z,3.38
2018-11-29T23:43:43.918Z,3.36
2018-11-29T23:46:42.625Z,3.32
2018-11-29T23:49:32.541Z,4.03
2018-11-29T23:52:25.979Z,3.57
2018-11-29T23:55:14.474Z,3.47
2018-11-29T23:58:01.917Z,3.42
